Time;durP1;ratioP1;P1;durP2;ratioP2;P2;SDS_P1;SDS_P2;PMS_P1;PMS_P2;Temp;Humidity;BMP_temperature;BMP_pressure;BME280_temperature;BME280_humidity;BME280_pressure;Samples;Min_cycle;Max_cycle;Signal;HPM_P1;HPM_P2
2021/11/12 00:15:23;;;;;;;27.05;15.58;;;;;;;2.71;71.15;101448.80;1754743;77;21189;-54
2021/11/12 00:18:33;;;;;;;22.50;15.32;;;;;;;2.73;71.24;101440.08;1728634;77;21279;-54
2021/11/12 00:21:40;;;;;;;22.60;14.55;;;;;;;2.73;71.28;101436.03;1780417;77;21374;-56
2021/11/12 00:24:46;;;;;;;25.95;13.45;;;;;;;2.70;71.36;101433.05;1784062;77;21793;-54
2021/11/12 00:27:53;;;;;;;24.55;15.10;;;;;;;2.69;71.42;101431.80;1788126;77;21196;-54
2021/11/12 00:40:56;;;;;;;25.48;16.02;;;;;;;2.57;72.15;101412.35;1800536;78;21398;-55
2021/11/12 00:43:58;;;;;;;30.02;16.42;;;;;;;2.55;72.35;101404.81;1789887;78;21225;-54
2021/11/12 00:47:19;;;;;;;27.27;15.53;;;;;;;2.55;72.54;101399.41;1785893;77;21389;-54
2021/11/12 00:56:32;;;;;;;25.27;15.05;;;;;;;2.50;73.06;101396.14;1791098;77;21410;-55
2021/11/12 00:59:40;;;;;;;25.95;15.75;;;;;;;2.49;73.29;101386.31;1794372;79;21327;-54
2021/11/12 01:02:46;;;;;;;36.60;14.70;;;;;;;2.44;73.49;101381.69;1787242;78;21389;-54
2021/11/12 01:05:52;;;;;;;23.90;14.50;;;;;;;2.43;73.71;101379.92;1792054;78;21301;-54
2021/11/12 01:08:57;;;;;;;22.13;13.45;;;;;;;2.44;73.92;101377.62;1791495;78;21264;-54
2021/11/12 01:12:03;;;;;;;22.65;14.87;;;;;;;2.40;74.10;101368.84;1783838;77;21731;-54
2021/11/12 01:15:15;;;;;;;21.85;13.20;;;;;;;2.42;74.26;101370.09;1788636;79;21189;-53
2021/11/12 01:18:21;;;;;;;24.95;14.20;;;;;;;2.40;74.36;101362.09;1796332;79;21327;-54
2021/11/12 01:21:29;;;;;;;25.65;15.32;;;;;;;2.39;74.49;101367.59;1793390;79;21218;-55
2021/11/12 01:24:36;;;;;;;25.15;16.12;;;;;;;2.38;74.62;101364.53;1778949;77;21359;-55
2021/11/12 01:27:43;;;;;;;23.42;16.02;;;;;;;2.37;74.79;101365.47;1791361;78;21194;-54
2021/11/12 01:30:48;;;;;;;28.05;17.57;;;;;;;2.36;74.93;101361.05;1791494;79;21738;-54
2021/11/12 01:33:55;;;;;;;28.25;17.67;;;;;;;2.34;75.08;101356.22;1790247;78;21348;-54
2021/11/12 01:37:03;;;;;;;24.37;16.20;;;;;;;2.34;75.25;101354.88;1782815;77;21315;-54
2021/11/12 01:40:18;;;;;;;29.85;16.23;;;;;;;2.33;75.43;101350.45;1784840;77;21426;-58
2021/11/12 01:43:25;;;;;;;23.67;16.25;;;;;;;2.32;75.61;101347.34;1784463;77;21323;-54
2021/11/12 01:46:43;;;;;;;25.72;17.40;;;;;;;2.31;75.80;101338.86;1795227;77;21315;-54
2021/11/12 01:49:45;;;;;;;24.18;16.37;;;;;;;2.30;76.00;101347.95;1789519;78;21204;-54
2021/11/12 01:52:48;;;;;;;25.37;16.48;;;;;;;2.28;76.17;101335.02;1785510;76;21346;-55
2021/11/12 01:56:42;;;;;;;21.82;15.30;;;;;;;2.29;76.34;101334.03;1760038;78;21252;-54
2021/11/12 02:02:09;;;;;;;27.85;17.02;;;;;;;2.28;76.77;101323.73;1791396;77;21263;-54
2021/11/12 02:05:19;;;;;;;27.73;17.30;;;;;;;2.28;76.92;101329.14;1792473;77;21181;-53
2021/11/12 02:08:25;;;;;;;28.67;17.45;;;;;;;2.27;77.12;101325.16;1796134;77;21180;-55
2021/11/12 02:11:31;;;;;;;26.50;17.92;;;;;;;2.27;77.31;101327.86;1787174;78;21287;-55
2021/11/12 02:14:40;;;;;;;26.00;19.00;;;;;;;2.27;77.47;101317.05;1792194;77;21206;-55
2021/11/12 02:17:53;;;;;;;28.07;17.98;;;;;;;2.27;77.64;101308.95;1794623;77;21189;-56
2021/11/12 02:21:21;;;;;;;28.00;17.48;;;;;;;2.26;77.78;101300.48;1794492;77;21347;-54
2021/11/12 02:24:19;;;;;;;28.17;17.70;;;;;;;2.24;77.94;101303.28;1781518;78;21764;-55
2021/11/12 02:27:36;;;;;;;26.57;18.30;;;;;;;2.23;78.09;101293.93;1794898;79;21312;-54
2021/11/12 02:30:36;;;;;;;26.37;18.07;;;;;;;2.22;78.24;101282.75;1784669;77;21332;-54
2021/11/12 02:33:43;;;;;;;25.57;18.92;;;;;;;2.20;78.46;101292.31;1788748;78;21224;-54
2021/11/12 02:36:48;;;;;;;27.58;19.23;;;;;;;2.18;78.64;101290.19;1789451;77;21260;-53
2021/11/12 02:39:54;;;;;;;32.45;19.10;;;;;;;2.16;78.86;101284.01;1796718;79;21418;-54
2021/11/12 02:43:03;;;;;;;32.78;19.17;;;;;;;2.14;79.08;101280.53;1781984;77;21232;-53
2021/11/12 02:46:10;;;;;;;32.28;20.55;;;;;;;2.14;79.28;101278.34;1797833;78;21350;-54
2021/11/12 02:49:19;;;;;;;34.20;21.75;;;;;;;2.13;79.47;101267.13;1798203;80;21411;-55
2021/11/12 02:52:24;;;;;;;34.15;23.95;;;;;;;2.12;79.62;101254.61;1787558;77;21369;-54
2021/11/12 02:55:31;;;;;;;37.60;23.18;;;;;;;2.12;79.80;101256.84;1786337;78;21347;-55
2021/11/12 02:58:40;;;;;;;31.05;21.68;;;;;;;2.13;79.93;101263.08;1785043;77;21957;-55
2021/11/12 03:01:49;;;;;;;32.78;23.35;;;;;;;2.11;80.03;101256.94;1790104;79;21359;-54
2021/11/12 03:04:57;;;;;;;31.77;22.40;;;;;;;2.09;80.21;101254.81;1799711;79;21253;-54
2021/11/12 03:08:04;;;;;;;36.00;24.18;;;;;;;2.08;80.33;101253.94;1790236;78;21450;-55
2021/11/12 03:11:15;;;;;;;33.15;23.30;;;;;;;2.08;80.46;101257.14;1777748;78;21351;-54
2021/11/12 03:14:22;;;;;;;35.63;23.65;;;;;;;2.07;80.58;101254.04;1785365;78;21499;-54
2021/11/12 03:17:29;;;;;;;32.50;21.17;;;;;;;2.08;80.69;101249.05;1787005;77;21386;-54
2021/11/12 03:20:38;;;;;;;33.15;20.88;;;;;;;2.08;80.76;101244.99;1795845;77;21745;-54
2021/11/12 03:23:58;;;;;;;27.13;19.82;;;;;;;2.06;80.86;101237.47;1799698;78;21216;-54
2021/11/12 03:49:51;;;;;;;30.62;22.30;;;;;;;1.99;81.79;101218.58;1779854;77;21224;-54
2021/11/12 03:56:29;;;;;;;33.53;20.88;;;;;;;1.99;81.91;101207.77;1768941;77;21220;-54
2021/11/12 04:00:24;;;;;;;31.30;20.62;;;;;;;1.98;82.09;101200.66;1765391;78;21872;-56
2021/11/12 04:03:49;;;;;;;26.97;20.72;;;;;;;1.95;82.05;101200.86;1788657;76;21339;-55
2021/11/12 05:10:22;;;;;;;36.15;23.92;;;;;;;1.89;83.32;101193.17;1804120;78;21390;-57
2021/11/12 05:49:44;;;;;;;45.08;28.98;;;;;;;2.12;83.27;101208.23;1774774;77;21224;-58
2021/11/12 05:57:16;;;;;;;32.70;20.85;;;;;;;2.26;83.19;101207.28;1748680;76;21215;-58
2021/11/12 06:00:24;;;;;;;38.53;23.40;;;;;;;2.29;83.13;101197.62;1756411;79;21196;-59
2021/11/12 06:03:30;;;;;;;31.20;20.95;;;;;;;2.33;83.08;101189.70;1747475;78;21251;-59
2021/11/12 06:06:39;;;;;;;32.40;21.25;;;;;;;2.38;83.05;101190.27;1771960;76;21274;-58
2021/11/12 06:09:46;;;;;;;37.85;22.93;;;;;;;2.39;83.03;101196.05;1777756;79;21271;-59
2021/11/12 06:12:50;;;;;;;38.75;22.67;;;;;;;2.42;83.04;101198.06;1783272;78;21211;-59
2021/11/12 06:15:56;;;;;;;42.25;23.55;;;;;;;2.44;83.09;101194.73;1794261;79;21748;-58
2021/11/12 06:19:03;;;;;;;33.65;20.85;;;;;;;2.50;83.18;101193.47;1779213;77;21271;-59
2021/11/12 06:22:09;;;;;;;36.85;21.70;;;;;;;2.56;83.24;101194.39;1785716;78;21203;-60
2021/11/12 06:25:16;;;;;;;30.32;19.73;;;;;;;2.60;83.32;101195.42;1785264;77;21209;-59
2021/11/12 06:28:22;;;;;;;39.10;24.05;;;;;;;2.65;83.31;101188.34;1758360;79;21216;-58
2021/11/12 06:31:27;;;;;;;46.73;25.30;;;;;;;2.67;83.41;101181.88;1770532;77;21738;-59
2021/11/12 06:34:32;;;;;;;42.90;24.67;;;;;;;2.71;83.45;101174.44;1772443;78;21235;-59
2021/11/12 06:37:43;;;;;;;38.50;23.40;;;;;;;2.75;83.49;101174.11;1764793;79;21188;-59
2021/11/12 06:40:50;;;;;;;37.48;22.50;;;;;;;2.80;83.53;101171.08;1744316;79;21338;-58
2021/11/12 06:50:48;;;;;;;32.95;22.25;;;;;;;3.01;83.65;101165.00;1787857;76;21228;-59
2021/11/12 06:53:54;;;;;;;34.58;22.25;;;;;;;3.08;83.63;101164.97;1771228;78;21220;-59
2021/11/12 06:57:01;;;;;;;33.23;21.80;;;;;;;3.20;83.65;101171.82;1772721;78;21856;-59
2021/11/12 07:00:07;;;;;;;33.67;22.52;;;;;;;3.32;83.59;101169.57;1770043;77;21415;-59
2021/11/12 07:03:12;;;;;;;32.58;21.90;;;;;;;3.43;83.48;101155.66;1775842;76;21207;-59
2021/11/12 07:06:19;;;;;;;32.35;21.27;;;;;;;3.53;83.30;101158.55;1788685;79;21204;-59
2021/11/12 07:09:27;;;;;;;33.08;22.85;;;;;;;3.56;83.08;101156.48;1785345;76;21347;-59
2021/11/12 07:12:34;;;;;;;35.83;23.18;;;;;;;3.60;83.01;101153.92;1782467;77;21714;-58
2021/11/12 07:15:42;;;;;;;33.18;22.17;;;;;;;3.68;82.94;101140.69;1785962;76;21409;-57
2021/11/12 07:18:48;;;;;;;38.28;23.35;;;;;;;3.75;82.92;101152.80;1791550;77;21358;-59
2021/11/12 07:21:57;;;;;;;29.87;20.55;;;;;;;3.88;82.95;101134.67;1778075;77;21331;-59
2021/11/12 07:25:01;;;;;;;29.32;20.48;;;;;;;4.01;82.83;101141.38;1773530;79;21247;-58
2021/11/12 07:28:10;;;;;;;32.65;19.52;;;;;;;4.08;82.61;101134.02;1771683;77;21750;-59
2021/11/12 07:31:17;;;;;;;30.35;18.75;;;;;;;4.14;82.55;101129.48;1770776;78;21741;-58
2021/11/12 07:34:27;;;;;;;26.87;18.48;;;;;;;4.25;82.50;101115.97;1723365;78;21318;-59
2021/11/12 07:37:34;;;;;;;30.12;20.35;;;;;;;4.35;82.41;101110.23;1767110;78;21328;-58
2021/11/12 07:41:41;;;;;;;36.05;20.55;;;;;;;4.45;82.34;101114.44;1757570;78;21430;-59
2021/11/12 07:47:22;;;;;;;26.73;17.73;;;;;;;4.70;82.15;101113.38;1721601;79;21236;-60
2021/11/12 07:50:34;;;;;;;36.50;21.77;;;;;;;4.81;82.04;101107.97;1780043;77;21783;-59
2021/11/12 07:53:46;;;;;;;29.57;18.23;;;;;;;4.95;82.04;101112.67;1776350;77;21623;-59
2021/11/12 07:56:56;;;;;;;27.13;17.70;;;;;;;5.11;81.86;101101.44;1759620;77;21393;-55
2021/11/12 08:00:05;;;;;;;26.95;17.82;;;;;;;5.21;81.54;101097.01;1766588;77;21577;-59
2021/11/12 08:03:14;;;;;;;27.22;16.12;;;;;;;5.30;81.56;101101.68;1782074;77;21381;-59
2021/11/12 08:06:21;;;;;;;24.30;16.27;;;;;;;5.42;81.36;101095.27;1752957;78;21208;-58
2021/11/12 08:09:36;;;;;;;26.37;16.67;;;;;;;5.51;81.18;101090.42;1751170;77;21250;-60
2021/11/12 08:12:44;;;;;;;26.00;16.65;;;;;;;5.61;80.90;101081.91;1788501;77;21518;-58
2021/11/12 08:16:16;;;;;;;20.57;14.33;;;;;;;5.69;80.76;101080.77;1796801;79;21939;-58
2021/11/12 08:19:31;;;;;;;25.95;16.50;;;;;;;5.77;80.54;101075.56;1785010;79;21224;-59
2021/11/12 08:22:44;;;;;;;24.95;14.47;;;;;;;5.85;80.33;101069.86;1781237;77;21346;-59
2021/11/12 08:26:06;;;;;;;26.48;14.70;;;;;;;5.95;80.15;101073.54;1777272;77;21462;-59
2021/11/12 08:32:56;;;;;;;27.13;15.68;;;;;;;6.13;79.72;101073.84;1776168;78;21188;-59
2021/11/12 08:39:01;;;;;;;23.02;13.45;;;;;;;6.31;78.64;101070.05;1739035;81;21543;-59
2021/11/12 08:42:06;;;;;;;22.52;14.00;;;;;;;6.34;78.19;101069.28;1794611;79;21836;-58
2021/11/12 08:45:19;;;;;;;21.93;12.88;;;;;;;6.39;77.76;101071.61;1783792;78;21367;-58
2021/11/12 08:49:13;;;;;;;23.95;13.85;;;;;;;6.42;77.44;101061.82;1755216;81;21792;-58
2021/11/12 08:51:40;;;;;;;24.80;14.10;;;;;;;6.50;77.34;101059.30;1729898;79;21567;-58
2021/11/12 08:54:54;;;;;;;24.18;14.07;;;;;;;6.59;77.14;101059.36;1763273;77;21907;-59
2021/11/12 08:58:12;;;;;;;21.77;12.13;;;;;;;6.69;76.80;101054.81;1753199;77;21210;-59
2021/11/12 09:01:22;;;;;;;24.45;13.62;;;;;;;6.75;76.07;101047.98;1759618;77;21205;-57
2021/11/12 09:04:27;;;;;;;23.62;13.68;;;;;;;6.80;75.90;101041.13;1759535;77;21197;-58
2021/11/12 09:07:41;;;;;;;23.87;13.08;;;;;;;6.91;75.91;101042.39;1767159;79;21216;-58
2021/11/12 09:10:52;;;;;;;20.12;12.43;;;;;;;7.04;75.64;101038.95;1782982;77;22084;-59
2021/11/12 09:14:06;;;;;;;20.77;12.78;;;;;;;7.13;75.30;101032.70;1756045;76;21902;-59
2021/11/12 09:17:16;;;;;;;24.02;12.70;;;;;;;7.25;75.02;101017.96;1770913;76;21244;-58
2021/11/12 09:20:23;;;;;;;22.98;12.78;;;;;;;7.35;74.47;101017.98;1776279;77;21774;-57
2021/11/12 09:23:31;;;;;;;21.07;12.82;;;;;;;7.38;73.91;101006.32;1763523;77;21454;-58
2021/11/12 09:26:36;;;;;;;18.82;11.75;;;;;;;7.41;73.54;101004.67;1744027;79;21223;-57
2021/11/12 09:29:44;;;;;;;23.42;13.15;;;;;;;7.45;73.42;101008.83;1780556;76;21752;-55
2021/11/12 09:32:55;;;;;;;19.75;11.65;;;;;;;7.53;73.16;101013.59;1780121;78;21359;-54
2021/11/12 09:36:02;;;;;;;22.98;12.65;;;;;;;7.60;72.94;101012.00;1775855;77;21374;-54
2021/11/12 09:39:13;;;;;;;17.60;11.78;;;;;;;7.68;72.59;101009.92;1767097;78;21232;-55
2021/11/12 09:42:21;;;;;;;18.52;12.50;;;;;;;7.76;72.40;101021.84;1773985;77;21209;-56
2021/11/12 09:45:28;;;;;;;23.07;13.20;;;;;;;7.84;72.12;101006.13;1792621;78;21222;-57
2021/11/12 09:48:34;;;;;;;17.65;12.18;;;;;;;7.91;71.96;101012.75;1769107;76;21258;-57
2021/11/12 09:51:41;;;;;;;20.92;12.70;;;;;;;8.03;71.63;101017.91;1766803;77;21255;-55
2021/11/12 09:54:47;;;;;;;21.60;12.33;;;;;;;8.10;71.35;101008.66;1775947;77;21207;-58
2021/11/12 09:57:54;;;;;;;20.52;13.28;;;;;;;8.21;71.18;101009.86;1801741;79;21208;-56
2021/11/12 10:01:02;;;;;;;19.07;12.78;;;;;;;8.29;70.57;101003.21;1778376;79;21200;-56
2021/11/12 10:04:10;;;;;;;21.42;13.78;;;;;;;8.40;70.47;100998.45;1762999;81;21272;-56
2021/11/12 10:07:25;;;;;;;24.37;14.38;;;;;;;8.53;69.85;101010.41;1699462;82;21813;-56
2021/11/12 10:10:33;;;;;;;19.75;12.93;;;;;;;8.59;69.14;100997.02;1757493;80;21714;-56
2021/11/12 10:13:59;;;;;;;20.17;13.28;;;;;;;8.70;69.04;100990.53;1755727;79;21177;-56
2021/11/12 10:17:06;;;;;;;21.15;13.00;;;;;;;8.79;68.49;100997.81;1754187;80;21601;-56
2021/11/12 10:20:17;;;;;;;30.57;18.42;;;;;;;8.83;67.93;100989.70;1748511;79;21262;-56
2021/11/12 10:23:24;;;;;;;23.10;14.53;;;;;;;8.93;67.74;100981.81;1763412;77;22087;-56
2021/11/12 10:26:35;;;;;;;19.37;13.00;;;;;;;9.08;67.22;100984.91;1763846;78;21235;-55
2021/11/12 10:29:45;;;;;;;20.97;14.28;;;;;;;9.16;66.87;100984.14;1757079;78;21208;-57
2021/11/12 10:32:54;;;;;;;22.07;13.95;;;;;;;9.24;66.58;100976.91;1771388;79;21216;-55
2021/11/12 10:36:01;;;;;;;35.45;20.50;;;;;;;9.33;65.82;100969.66;1800495;76;21645;-56
2021/11/12 10:39:09;;;;;;;54.15;28.83;;;;;;;9.41;65.55;100969.75;1773234;79;21201;-56
2021/11/12 10:42:23;;;;;;;29.55;17.98;;;;;;;9.45;65.07;100961.08;1770208;79;21297;-55
2021/11/12 10:45:34;;;;;;;25.35;15.75;;;;;;;9.48;65.02;100971.70;1770783;78;21208;-56
2021/11/12 10:48:41;;;;;;;25.65;16.35;;;;;;;9.55;64.82;100955.55;1768527;78;21769;-55
2021/11/12 10:52:05;;;;;;;28.27;16.05;;;;;;;9.64;64.67;100953.27;1750312;80;21398;-55
2021/11/12 10:55:26;;;;;;;26.00;15.98;;;;;;;9.74;64.36;100943.09;1761733;77;21220;-56
2021/11/12 10:58:32;;;;;;;29.95;16.02;;;;;;;9.85;64.19;100945.08;1766617;79;21216;-55
2021/11/12 11:01:43;;;;;;;31.82;17.80;;;;;;;9.98;63.82;100944.67;1737516;81;21724;-55
2021/11/12 11:04:51;;;;;;;;;;;;;;;10.05;63.29;100942.51;1769815;77;21762;-55
2021/11/12 11:08:06;;;;;;;28.98;17.40;;;;;;;10.07;62.62;100947.35;1781006;77;20286;-54
2021/11/12 11:11:17;;;;;;;27.90;18.00;;;;;;;10.07;62.52;100933.67;1776986;76;21402;-56
2021/11/12 11:14:38;;;;;;;37.75;20.17;;;;;;;10.12;62.69;100924.98;1771629;77;21835;-55
2021/11/12 11:17:57;;;;;;;30.88;19.37;;;;;;;10.19;62.57;100917.38;1762665;78;21188;-56
2021/11/12 11:24:25;;;;;;;35.52;19.80;;;;;;;10.30;61.97;100929.92;1773836;77;21203;-56
2021/11/12 11:27:33;;;;;;;28.98;19.20;;;;;;;10.36;62.10;100937.48;1741957;76;21729;-54
2021/11/12 11:30:42;;;;;;;28.87;19.30;;;;;;;10.46;61.91;100942.34;1760491;77;21235;-55
2021/11/12 11:33:52;;;;;;;32.88;21.25;;;;;;;10.57;61.84;100936.59;1760597;77;21238;-55
2021/11/12 11:37:10;;;;;;;31.52;19.48;;;;;;;10.66;61.38;100932.87;1783900;77;21341;-56
2021/11/12 11:40:21;;;;;;;30.35;18.82;;;;;;;10.74;61.31;100937.52;1736177;80;21329;-55
2021/11/12 11:43:27;;;;;;;32.42;19.82;;;;;;;10.88;61.08;100935.56;1682997;78;21255;-57
2021/11/12 11:46:36;;;;;;;32.90;20.88;;;;;;;10.98;60.41;100934.40;1738729;78;21217;-55
2021/11/12 11:49:44;;;;;;;;;;;;;;;11.03;59.95;100926.55;1761444;78;21247;-56
2021/11/12 11:52:50;;;;;;;31.45;20.82;;;;;;;11.07;59.76;100922.97;1769222;77;20261;-55
2021/11/12 11:56:00;;;;;;;28.90;19.82;;;;;;;11.15;59.86;100918.86;1781742;78;21248;-56
2021/11/12 11:59:08;;;;;;;30.97;20.20;;;;;;;11.24;59.37;100920.63;1765352;78;22446;-56
2021/11/12 12:02:26;;;;;;;31.12;21.52;;;;;;;11.25;58.92;100919.59;1757013;78;21234;-53
2021/11/12 12:05:35;;;;;;;27.70;20.00;;;;;;;11.22;58.75;100920.80;1720330;79;21296;-55
2021/11/12 12:08:44;;;;;;;32.13;22.82;;;;;;;11.25;58.78;100926.44;1783802;78;21814;-54
2021/11/12 12:12:04;;;;;;;42.33;23.45;;;;;;;11.28;58.98;100914.63;1771136;76;21666;-56
2021/11/12 12:15:21;;;;;;;37.38;22.02;;;;;;;11.34;58.68;100930.91;1769833;77;21212;-54
2021/11/12 12:18:32;;;;;;;31.12;20.37;;;;;;;11.39;58.54;100931.27;1772263;77;21185;-55
2021/11/12 12:21:52;;;;;;;36.58;21.62;;;;;;;11.42;58.37;100930.93;1775288;78;21193;-57
2021/11/12 12:35:44;;;;;;;34.08;21.33;;;;;;;11.37;58.19;100930.60;1779496;76;21388;-56
2021/11/12 13:21:44;;;;;;;41.75;26.85;;;;;;;10.80;59.50;100950.59;1742070;79;21708;-55
2021/11/12 13:24:45;;;;;;;37.25;24.18;;;;;;;10.75;59.91;100951.05;1762633;78;21808;-55
2021/11/12 13:27:52;;;;;;;43.40;28.12;;;;;;;10.70;60.18;100958.05;1775502;77;21220;-54
2021/11/12 13:31:15;;;;;;;48.42;29.98;;;;;;;10.64;60.42;100955.97;1780510;77;21264;-55
2021/11/12 13:34:21;;;;;;;53.33;31.12;;;;;;;10.54;60.71;100962.39;1767440;77;21259;-54
2021/11/12 13:37:31;;;;;;;51.73;30.48;;;;;;;10.45;61.05;100956.53;1761866;77;21177;-55
2021/11/12 13:40:44;;;;;;;46.50;27.17;;;;;;;10.39;61.32;100960.41;1775720;78;21236;-55
2021/11/12 13:43:53;;;;;;;48.02;28.00;;;;;;;10.30;61.62;100966.36;1766522;77;21399;-55
2021/11/12 13:47:12;;;;;;;52.20;29.92;;;;;;;10.19;61.92;100963.88;1757460;76;21740;-54
2021/11/12 13:50:19;;;;;;;62.55;32.28;;;;;;;10.11;62.27;100969.29;1762664;78;22009;-55
2021/11/12 13:53:36;;;;;;;59.05;34.25;;;;;;;10.06;62.52;100972.09;1758827;77;21361;-55
2021/11/12 13:56:46;;;;;;;70.95;38.20;;;;;;;10.03;62.71;100977.39;1772748;79;21385;-54
2021/11/12 14:00:02;;;;;;;97.47;53.20;;;;;;;9.99;62.94;100980.60;1765479;77;21248;-55
2021/11/12 14:03:22;;;;;;;87.22;46.28;;;;;;;10.01;63.15;100978.55;1759936;79;21476;-56
2021/11/12 14:06:29;;;;;;;95.92;50.83;;;;;;;10.02;63.19;100979.75;1754720;77;21827;-55
2021/11/12 14:09:40;;;;;;;95.92;52.45;;;;;;;10.03;63.30;100984.73;1749659;78;21255;-56
2021/11/12 14:13:02;;;;;;;77.47;44.35;;;;;;;10.04;63.36;100987.30;1780317;77;21282;-54
2021/11/12 14:16:22;;;;;;;54.93;35.28;;;;;;;10.02;63.41;100992.06;1776117;79;21197;-55
2021/11/12 14:19:40;;;;;;;44.65;28.65;;;;;;;9.99;63.54;100998.38;1763767;78;21782;-54
2021/11/12 14:22:48;;;;;;;41.83;27.50;;;;;;;9.95;63.67;100997.83;1764976;75;21251;-54
2021/11/12 14:29:18;;;;;;;50.35;29.50;;;;;;;9.88;64.02;101003.56;1769258;77;21775;-55
2021/11/12 14:35:50;;;;;;;47.65;30.35;;;;;;;9.70;64.43;101008.68;1774232;79;21285;-55
2021/11/12 14:45:40;;;;;;;68.25;39.70;;;;;;;9.57;65.02;101009.06;1751055;78;21215;-55
2021/11/12 14:48:57;;;;;;;73.67;43.30;;;;;;;9.58;65.12;101013.50;1738949;79;21235;-55
2021/11/12 14:52:05;;;;;;;64.87;37.83;;;;;;;9.58;65.18;101023.56;1752426;79;21768;-54
2021/11/12 14:55:13;;;;;;;75.45;41.58;;;;;;;9.55;65.26;101029.34;1771501;78;21205;-54
2021/11/12 14:58:21;;;;;;;66.53;36.93;;;;;;;9.54;65.41;101033.97;1766841;78;21289;-54
2021/11/12 15:01:33;;;;;;;59.05;35.43;;;;;;;9.52;65.54;101028.28;1764962;78;21472;-54
2021/11/12 15:04:41;;;;;;;85.72;47.23;;;;;;;9.52;65.59;101029.65;1757871;77;21240;-54
2021/11/12 15:07:57;;;;;;;104.20;54.80;;;;;;;9.50;65.63;101036.64;1764135;76;21758;-53
2021/11/12 15:11:03;;;;;;;105.70;56.02;;;;;;;9.49;65.69;101042.25;1763965;78;21205;-54
2021/11/12 15:14:14;;;;;;;84.90;44.53;;;;;;;9.46;65.74;101046.67;1786382;78;22012;-54
2021/11/12 15:17:28;;;;;;;108.65;54.05;;;;;;;9.44;65.86;101048.19;1772751;78;21256;-54
2021/11/12 15:20:38;;;;;;;91.70;45.85;;;;;;;9.42;65.96;101048.00;1784172;77;21199;-54
2021/11/12 15:34:09;;;;;;;98.78;51.33;;;;;;;9.35;66.32;101066.00;1762667;77;21262;-53
2021/11/12 15:37:34;;;;;;;87.57;47.60;;;;;;;9.33;66.44;101072.98;1795202;79;21678;-54
2021/11/12 15:40:55;;;;;;;69.45;40.23;;;;;;;9.33;66.49;101074.84;1790234;80;21202;-54
2021/11/12 15:44:19;;;;;;;72.62;40.88;;;;;;;9.33;66.54;101080.31;1788919;79;21209;-54
2021/11/12 15:47:27;;;;;;;61.92;34.58;;;;;;;9.28;66.63;101079.40;1763585;76;21225;-55
2021/11/12 15:50:51;;;;;;;55.08;33.63;;;;;;;9.26;66.76;101080.05;1727711;78;21253;-54
2021/11/12 15:54:00;;;;;;;55.28;35.05;;;;;;;9.26;66.83;101080.58;1775440;77;22248;-54
2021/11/12 16:00:32;;;;;;;59.45;35.68;;;;;;;9.27;67.00;101093.20;1777930;76;21161;-54
2021/11/12 16:04:07;;;;;;;72.80;42.35;;;;;;;9.26;67.06;101090.97;1729116;79;21703;-54
2021/11/12 16:07:18;;;;;;;84.80;44.60;;;;;;;9.28;67.12;101095.79;1734641;78;21209;-54
2021/11/12 16:13:40;;;;;;;77.65;42.17;;;;;;;9.30;67.21;101099.23;1759334;78;21282;-55
2021/11/12 16:17:20;;;;;;;91.72;49.05;;;;;;;9.30;67.25;101102.47;1763942;77;21377;-53
2021/11/12 16:20:37;;;;;;;80.35;45.73;;;;;;;9.28;67.31;101103.98;1759804;78;21602;-54
2021/11/12 16:27:00;;;;;;;166.95;83.27;;;;;;;9.26;67.44;101103.27;1756531;79;21216;-55
2021/11/12 16:30:08;;;;;;;161.35;80.85;;;;;;;9.27;67.51;101102.28;1748506;76;21877;-55
2021/11/12 16:33:21;;;;;;;117.65;65.05;;;;;;;9.27;67.56;101111.84;1757972;78;21248;-55
2021/11/12 16:36:27;;;;;;;106.83;65.78;;;;;;;9.26;67.62;101118.30;1745080;79;21663;-54
2021/11/12 16:40:03;;;;;;;83.72;50.10;;;;;;;9.24;67.71;101118.97;1714505;77;21215;-56
2021/11/12 16:43:02;;;;;;;119.85;58.20;;;;;;;9.22;67.81;101117.38;1760932;81;21402;-54
2021/11/12 16:46:18;;;;;;;133.18;64.87;;;;;;;9.21;67.89;101124.73;1776428;78;21787;-56
2021/11/12 16:49:28;;;;;;;115.65;55.03;;;;;;;9.17;68.03;101123.30;1777103;76;21848;-54
2021/11/12 16:52:54;;;;;;;103.83;50.90;;;;;;;9.13;68.16;101128.72;1777138;76;21204;-54
2021/11/12 17:46:46;;;;;;;67.05;41.90;;;;;;;7.71;72.26;101177.27;1785947;80;21260;-58
2021/11/12 18:02:41;;;;;;;54.25;35.40;;;;;;;7.88;72.44;101186.13;1782599;79;21344;-55
2021/11/12 18:06:00;;;;;;;56.45;35.80;;;;;;;7.88;72.39;101186.97;1792476;77;21288;-55
2021/11/12 21:48:59;;;;;;;33.88;16.93;;;;;;;7.19;68.62;101411.98;1753612;78;21346;-55
2021/11/12 21:52:04;;;;;;;29.60;18.10;;;;;;;7.22;68.45;101410.84;1771370;77;21474;-54
2021/11/12 21:55:11;;;;;;;29.85;17.90;;;;;;;7.20;68.35;101415.06;1764898;77;21168;-55
2021/11/12 21:58:18;;;;;;;28.95;17.20;;;;;;;7.19;68.33;101411.11;1771574;78;21353;-55
2021/11/12 22:01:24;;;;;;;29.25;17.67;;;;;;;7.20;68.33;101410.11;1765834;78;21432;-54
2021/11/12 22:04:31;;;;;;;32.75;20.17;;;;;;;7.21;68.34;101416.81;1766919;78;22005;-54
2021/11/12 22:07:37;;;;;;;33.88;20.30;;;;;;;7.24;68.25;101422.48;1756239;78;21274;-54
2021/11/12 22:10:44;;;;;;;32.30;19.23;;;;;;;7.24;68.18;101419.28;1774454;78;21358;-54
2021/11/12 22:13:52;;;;;;;32.67;19.60;;;;;;;7.25;68.10;101419.63;1774177;77;21418;-53
2021/11/12 22:16:58;;;;;;;31.85;19.15;;;;;;;7.24;67.94;101418.41;1773511;78;21354;-54
2021/11/12 22:20:04;;;;;;;28.85;18.48;;;;;;;7.23;67.97;101420.77;1772347;77;21875;-55
2021/11/12 22:23:10;;;;;;;31.20;17.92;;;;;;;7.25;67.95;101422.35;1777528;77;21866;-55
2021/11/12 22:26:16;;;;;;;40.55;22.98;;;;;;;7.24;67.84;101416.55;1773701;78;21350;-54
2021/11/12 22:29:23;;;;;;;50.70;26.33;;;;;;;7.22;67.79;101413.09;1774938;77;21712;-54
2021/11/12 22:32:31;;;;;;;43.87;23.12;;;;;;;7.23;67.77;101413.44;1774239;77;21200;-54
2021/11/12 22:35:38;;;;;;;35.03;20.72;;;;;;;7.21;67.72;101405.92;1772646;77;21280;-56
2021/11/12 22:38:45;;;;;;;35.90;21.15;;;;;;;7.24;67.76;101412.47;1775934;77;21365;-55
2021/11/12 22:41:53;;;;;;;31.85;19.60;;;;;;;7.26;67.70;101417.78;1775119;77;21784;-54
2021/11/12 22:45:05;;;;;;;31.87;20.08;;;;;;;7.27;67.62;101412.20;1777661;77;21484;-55
2021/11/12 22:48:13;;;;;;;35.45;20.95;;;;;;;7.31;67.49;101417.75;1736157;78;21259;-55
2021/11/12 22:51:18;;;;;;;33.48;20.62;;;;;;;7.33;67.34;101415.77;1708117;79;21336;-54
2021/11/12 22:54:25;;;;;;;30.77;20.12;;;;;;;7.31;67.23;101419.11;1768995;78;21295;-54
2021/11/12 22:57:31;;;;;;;33.98;19.27;;;;;;;7.28;67.12;101413.05;1755580;76;21887;-56
2021/11/12 23:01:01;;;;;;;30.75;19.20;;;;;;;7.26;67.16;101414.54;1752443;78;21178;-54
2021/11/12 23:04:12;;;;;;;29.50;18.65;;;;;;;7.25;67.16;101420.12;1754941;77;21189;-55
2021/11/12 23:07:17;;;;;;;31.68;18.82;;;;;;;7.20;67.19;101419.15;1756033;77;21528;-55
2021/11/12 23:10:22;;;;;;;33.90;21.15;;;;;;;7.16;67.28;101418.18;1747688;77;21311;-55
2021/11/12 23:13:31;;;;;;;36.15;19.40;;;;;;;7.13;67.38;101426.61;1759733;78;21263;-54
2021/11/12 23:16:36;;;;;;;31.87;18.35;;;;;;;7.09;67.45;101416.47;1750299;78;21741;-55
2021/11/12 23:19:42;;;;;;;40.30;22.55;;;;;;;7.07;67.48;101419.80;1751262;78;21866;-55
2021/11/12 23:22:52;;;;;;;37.67;23.12;;;;;;;7.07;67.53;101422.53;1741985;79;21212;-55
2021/11/12 23:25:58;;;;;;;48.58;30.57;;;;;;;7.06;67.51;101425.38;1761626;80;21350;-54
2021/11/12 23:29:03;;;;;;;63.83;38.55;;;;;;;7.04;67.49;101414.62;1760407;80;21232;-55
2021/11/12 23:32:07;;;;;;;46.83;27.80;;;;;;;7.00;67.50;101425.41;1762925;79;21375;-54
2021/11/12 23:35:14;;;;;;;34.55;20.27;;;;;;;6.98;67.54;101431.95;1748482;78;21263;-54
2021/11/12 23:38:20;;;;;;;32.65;19.45;;;;;;;6.98;67.58;101439.64;1745662;79;21251;-54
2021/11/12 23:41:25;;;;;;;33.18;19.02;;;;;;;6.99;67.63;101444.08;1743285;80;21193;-54
2021/11/12 23:44:31;;;;;;;31.07;19.70;;;;;;;7.00;67.65;101440.38;1759391;79;21752;-54
2021/11/12 23:47:38;;;;;;;34.95;20.15;;;;;;;7.03;67.63;101437.41;1761185;78;21330;-54